sensor_id;sensor_type;location;lat;lon;timestamp;temperature;humidity
7844;DHT22;3967;48.702;9.326;2023-02-15T00:04:35;2.60;98.60
7844;DHT22;3967;48.702;9.326;2023-02-15T00:07:22;2.50;98.40
7844;DHT22;3967;48.702;9.326;2023-02-15T00:09:49;2.40;98.40
7844;DHT22;3967;48.702;9.326;2023-02-15T00:12:16;2.30;98.70
7844;DHT22;3967;48.702;9.326;2023-02-15T00:14:43;2.30;99.10
7844;DHT22;3967;48.702;9.326;2023-02-15T00:17:10;2.20;99.60
7844;DHT22;3967;48.702;9.326;2023-02-15T00:19:36;2.30;99.80
7844;DHT22;3967;48.702;9.326;2023-02-15T00:22:03;2.20;99.80
7844;DHT22;3967;48.702;9.326;2023-02-15T00:24:30;2.20;99.90
7844;DHT22;3967;48.702;9.326;2023-02-15T00:26:57;2.20;99.90
7844;DHT22;3967;48.702;9.326;2023-02-15T00:29:24;2.20;99.80
7844;DHT22;3967;48.702;9.326;2023-02-15T00:31:51;2.20;99.80
7844;DHT22;3967;48.702;9.326;2023-02-15T00:34:21;2.20;99.50
7844;DHT22;3967;48.702;9.326;2023-02-15T00:36:49;2.20;99.20
7844;DHT22;3967;48.702;9.326;2023-02-15T00:39:16;2.00;99.20
7844;DHT22;3967;48.702;9.326;2023-02-15T00:41:44;1.90;99.50
7844;DHT22;3967;48.702;9.326;2023-02-15T00:44:12;1.90;99.70
7844;DHT22;3967;48.702;9.326;2023-02-15T00:46:39;1.90;99.90
7844;DHT22;3967;48.702;9.326;2023-02-15T00:49:06;1.90;99.70
7844;DHT22;3967;48.702;9.326;2023-02-15T00:51:33;1.90;99.80
7844;DHT22;3967;48.702;9.326;2023-02-15T00:54:00;1.80;99.70
7844;DHT22;3967;48.702;9.326;2023-02-15T00:56:26;1.80;99.80
7844;DHT22;3967;48.702;9.326;2023-02-15T00:58:55;1.80;99.90
7844;DHT22;3967;48.702;9.326;2023-02-15T01:01:22;1.80;99.90
7844;DHT22;3967;48.702;9.326;2023-02-15T01:03:49;1.70;99.90
7844;DHT22;3967;48.702;9.326;2023-02-15T01:06:16;1.60;99.90
7844;DHT22;3967;48.702;9.326;2023-02-15T01:08:47;1.60;99.90
7844;DHT22;3967;48.702;9.326;2023-02-15T01:11:16;1.50;99.90
7844;DHT22;3967;48.702;9.326;2023-02-15T01:13:50;1.60;99.90
7844;DHT22;3967;48.702;9.326;2023-02-15T01:16:17;1.60;99.90
7844;DHT22;3967;48.702;9.326;2023-02-15T01:18:44;1.60;99.90
7844;DHT22;3967;48.702;9.326;2023-02-15T01:21:13;1.60;99.90
7844;DHT22;3967;48.702;9.326;2023-02-15T01:23:41;1.60;99.90
7844;DHT22;3967;48.702;9.326;2023-02-15T01:26:09;1.60;99.90
7844;DHT22;3967;48.702;9.326;2023-02-15T01:28:37;1.50;99.90
7844;DHT22;3967;48.702;9.326;2023-02-15T01:31:12;1.60;99.90
7844;DHT22;3967;48.702;9.326;2023-02-15T01:33:40;1.60;99.90
7844;DHT22;3967;48.702;9.326;2023-02-15T01:36:07;1.60;99.90
7844;DHT22;3967;48.702;9.326;2023-02-15T01:38:35;1.60;99.90
7844;DHT22;3967;48.702;9.326;2023-02-15T01:41:02;1.60;99.90
7844;DHT22;3967;48.702;9.326;2023-02-15T01:46:23;1.40;99.90
7844;DHT22;3967;48.702;9.326;2023-02-15T01:48:55;1.40;99.90
7844;DHT22;3967;48.702;9.326;2023-02-15T01:51:26;1.50;99.90
7844;DHT22;3967;48.702;9.326;2023-02-15T01:54:03;1.50;99.90
7844;DHT22;3967;48.702;9.326;2023-02-15T01:56:33;1.50;99.90
7844;DHT22;3967;48.702;9.326;2023-02-15T01:59:07;1.40;99.90
7844;DHT22;3967;48.702;9.326;2023-02-15T02:01:35;1.40;99.90
7844;DHT22;3967;48.702;9.326;2023-02-15T02:04:25;1.40;99.90
7844;DHT22;3967;48.702;9.326;2023-02-15T02:06:59;1.40;99.90
7844;DHT22;3967;48.702;9.326;2023-02-15T02:09:26;1.40;99.90
7844;DHT22;3967;48.702;9.326;2023-02-15T02:11:53;1.30;99.90
7844;DHT22;3967;48.702;9.326;2023-02-15T02:14:21;1.30;99.90
7844;DHT22;3967;48.702;9.326;2023-02-15T02:22:45;1.30;99.90
7844;DHT22;3967;48.702;9.326;2023-02-15T02:28:05;1.20;99.90
7844;DHT22;3967;48.702;9.326;2023-02-15T02:34:38;1.20;99.90
7844;DHT22;3967;48.702;9.326;2023-02-15T02:40:01;1.20;99.90
7844;DHT22;3967;48.702;9.326;2023-02-15T02:42:41;1.20;99.80
7844;DHT22;3967;48.702;9.326;2023-02-15T02:45:35;1.20;99.90
7844;DHT22;3967;48.702;9.326;2023-02-15T02:48:13;1.10;99.50
7844;DHT22;3967;48.702;9.326;2023-02-15T02:50:41;1.10;99.50
7844;DHT22;3967;48.702;9.326;2023-02-15T02:53:09;1.00;99.70
7844;DHT22;3967;48.702;9.326;2023-02-15T02:55:47;1.10;99.90
7844;DHT22;3967;48.702;9.326;2023-02-15T02:58:23;1.10;99.90
7844;DHT22;3967;48.702;9.326;2023-02-15T03:00:56;1.00;99.90
7844;DHT22;3967;48.702;9.326;2023-02-15T03:03:27;1.00;99.90
7844;DHT22;3967;48.702;9.326;2023-02-15T03:05:59;0.90;99.90
7844;DHT22;3967;48.702;9.326;2023-02-15T03:08:33;0.90;99.90
7844;DHT22;3967;48.702;9.326;2023-02-15T03:11:03;1.00;99.90
7844;DHT22;3967;48.702;9.326;2023-02-15T03:13:30;0.90;99.90
7844;DHT22;3967;48.702;9.326;2023-02-15T03:16:00;0.80;99.90
7844;DHT22;3967;48.702;9.326;2023-02-15T03:21:40;0.80;99.90
7844;DHT22;3967;48.702;9.326;2023-02-15T03:24:20;0.80;99.90
7844;DHT22;3967;48.702;9.326;2023-02-15T03:26:50;0.90;99.90
7844;DHT22;3967;48.702;9.326;2023-02-15T03:29:20;0.70;99.90
7844;DHT22;3967;48.702;9.326;2023-02-15T03:31:54;0.70;99.90
7844;DHT22;3967;48.702;9.326;2023-02-15T03:34:23;0.60;99.90
7844;DHT22;3967;48.702;9.326;2023-02-15T03:36:58;0.60;99.90
7844;DHT22;3967;48.702;9.326;2023-02-15T03:39:42;0.60;99.90
7844;DHT22;3967;48.702;9.326;2023-02-15T03:42:16;0.60;99.90
7844;DHT22;3967;48.702;9.326;2023-02-15T03:44:56;0.70;99.90
7844;DHT22;3967;48.702;9.326;2023-02-15T03:47:31;0.70;99.90
7844;DHT22;3967;48.702;9.326;2023-02-15T03:50:03;0.60;99.90
7844;DHT22;3967;48.702;9.326;2023-02-15T03:52:53;0.60;99.90
7844;DHT22;3967;48.702;9.326;2023-02-15T03:55:21;0.60;99.90
7844;DHT22;3967;48.702;9.326;2023-02-15T03:57:48;0.70;99.90
7844;DHT22;3967;48.702;9.326;2023-02-15T04:00:36;0.70;99.90
7844;DHT22;3967;48.702;9.326;2023-02-15T04:05:55;0.70;99.90
7844;DHT22;3967;48.702;9.326;2023-02-15T04:08:22;0.60;99.90
7844;DHT22;3967;48.702;9.326;2023-02-15T04:11:09;0.60;99.90
7844;DHT22;3967;48.702;9.326;2023-02-15T04:13:35;0.70;99.90
7844;DHT22;3967;48.702;9.326;2023-02-15T04:16:02;0.60;99.90
7844;DHT22;3967;48.702;9.326;2023-02-15T04:18:30;0.60;99.90
7844;DHT22;3967;48.702;9.326;2023-02-15T04:21:20;0.60;99.90
7844;DHT22;3967;48.702;9.326;2023-02-15T04:24:05;0.70;99.90
7844;DHT22;3967;48.702;9.326;2023-02-15T04:26:51;0.60;99.80
7844;DHT22;3967;48.702;9.326;2023-02-15T04:29:23;0.50;99.90
7844;DHT22;3967;48.702;9.326;2023-02-15T04:31:51;0.60;99.90
7844;DHT22;3967;48.702;9.326;2023-02-15T04:34:19;0.60;99.90
7844;DHT22;3967;48.702;9.326;2023-02-15T04:36:46;0.60;99.70
7844;DHT22;3967;48.702;9.326;2023-02-15T04:39:13;0.60;99.50
7844;DHT22;3967;48.702;9.326;2023-02-15T04:41:42;0.60;99.40
7844;DHT22;3967;48.702;9.326;2023-02-15T04:44:09;0.70;99.30
7844;DHT22;3967;48.702;9.326;2023-02-15T04:46:36;0.70;99.30
7844;DHT22;3967;48.702;9.326;2023-02-15T04:49:03;0.60;99.40
7844;DHT22;3967;48.702;9.326;2023-02-15T04:51:29;0.60;99.30
7844;DHT22;3967;48.702;9.326;2023-02-15T04:53:56;0.60;99.50
7844;DHT22;3967;48.702;9.326;2023-02-15T04:56:23;0.60;99.50
7844;DHT22;3967;48.702;9.326;2023-02-15T04:58:50;0.60;99.30
7844;DHT22;3967;48.702;9.326;2023-02-15T05:01:19;0.50;99.30
7844;DHT22;3967;48.702;9.326;2023-02-15T05:03:46;0.60;99.20
7844;DHT22;3967;48.702;9.326;2023-02-15T05:06:13;0.60;99.20
7844;DHT22;3967;48.702;9.326;2023-02-15T05:08:40;0.60;99.00
7844;DHT22;3967;48.702;9.326;2023-02-15T05:11:06;0.50;98.80
7844;DHT22;3967;48.702;9.326;2023-02-15T05:13:33;0.40;98.70
7844;DHT22;3967;48.702;9.326;2023-02-15T05:16:00;0.30;98.90
7844;DHT22;3967;48.702;9.326;2023-02-15T05:18:27;0.30;99.10
7844;DHT22;3967;48.702;9.326;2023-02-15T05:20:54;0.10;99.90
7844;DHT22;3967;48.702;9.326;2023-02-15T05:23:20;0.20;99.90
7844;DHT22;3967;48.702;9.326;2023-02-15T05:25:48;0.30;99.90
7844;DHT22;3967;48.702;9.326;2023-02-15T05:28:35;0.30;99.90
7844;DHT22;3967;48.702;9.326;2023-02-15T05:31:08;0.20;99.90
7844;DHT22;3967;48.702;9.326;2023-02-15T05:33:36;0.20;99.90
7844;DHT22;3967;48.702;9.326;2023-02-15T05:36:03;0.30;99.90
7844;DHT22;3967;48.702;9.326;2023-02-15T05:38:31;0.20;99.70
7844;DHT22;3967;48.702;9.326;2023-02-15T05:40:58;0.30;99.60
7844;DHT22;3967;48.702;9.326;2023-02-15T05:43:25;0.30;99.40
7844;DHT22;3967;48.702;9.326;2023-02-15T05:45:53;0.30;99.20
7844;DHT22;3967;48.702;9.326;2023-02-15T05:48:23;0.30;99.10
7844;DHT22;3967;48.702;9.326;2023-02-15T05:51:04;0.30;99.00
7844;DHT22;3967;48.702;9.326;2023-02-15T05:53:33;0.30;99.00
7844;DHT22;3967;48.702;9.326;2023-02-15T05:56:01;0.30;99.00
7844;DHT22;3967;48.702;9.326;2023-02-15T05:58:31;0.30;98.90
7844;DHT22;3967;48.702;9.326;2023-02-15T06:00:58;0.30;99.00
7844;DHT22;3967;48.702;9.326;2023-02-15T06:03:25;0.20;98.80
7844;DHT22;3967;48.702;9.326;2023-02-15T06:05:54;0.40;99.90
7844;DHT22;3967;48.702;9.326;2023-02-15T06:08:21;0.30;99.60
7844;DHT22;3967;48.702;9.326;2023-02-15T06:10:48;0.20;99.00
7844;DHT22;3967;48.702;9.326;2023-02-15T06:13:14;0.10;98.90
7844;DHT22;3967;48.702;9.326;2023-02-15T06:15:41;0.10;98.90
7844;DHT22;3967;48.702;9.326;2023-02-15T06:18:08;0.00;99.00
7844;DHT22;3967;48.702;9.326;2023-02-15T06:20:35;0.00;99.90
7844;DHT22;3967;48.702;9.326;2023-02-15T06:23:01;0.00;99.80
7844;DHT22;3967;48.702;9.326;2023-02-15T06:25:28;0.00;99.60
7844;DHT22;3967;48.702;9.326;2023-02-15T06:27:55;0.00;99.40
7844;DHT22;3967;48.702;9.326;2023-02-15T06:30:21;0.00;99.10
7844;DHT22;3967;48.702;9.326;2023-02-15T06:32:48;0.10;98.70
7844;DHT22;3967;48.702;9.326;2023-02-15T06:35:15;0.00;98.50
7844;DHT22;3967;48.702;9.326;2023-02-15T06:37:45;-0.10;98.30
7844;DHT22;3967;48.702;9.326;2023-02-15T06:40:12;-0.10;98.70
7844;DHT22;3967;48.702;9.326;2023-02-15T06:42:39;-0.20;98.60
7844;DHT22;3967;48.702;9.326;2023-02-15T06:45:06;-0.20;98.70
7844;DHT22;3967;48.702;9.326;2023-02-15T06:47:34;-0.20;98.50
7844;DHT22;3967;48.702;9.326;2023-02-15T06:50:00;-0.20;98.60
7844;DHT22;3967;48.702;9.326;2023-02-15T06:52:27;-0.20;98.40
7844;DHT22;3967;48.702;9.326;2023-02-15T06:54:55;-0.30;98.40
7844;DHT22;3967;48.702;9.326;2023-02-15T06:57:22;-0.40;98.30
7844;DHT22;3967;48.702;9.326;2023-02-15T06:59:49;-0.40;98.20
7844;DHT22;3967;48.702;9.326;2023-02-15T07:02:16;-0.40;98.10
7844;DHT22;3967;48.702;9.326;2023-02-15T07:04:42;-0.50;98.30
7844;DHT22;3967;48.702;9.326;2023-02-15T07:07:10;-0.60;98.80
7844;DHT22;3967;48.702;9.326;2023-02-15T07:09:38;-0.60;99.50
7844;DHT22;3967;48.702;9.326;2023-02-15T07:12:06;-0.70;99.90
7844;DHT22;3967;48.702;9.326;2023-02-15T07:14:51;-0.90;99.90
7844;DHT22;3967;48.702;9.326;2023-02-15T07:17:18;-0.80;99.90
7844;DHT22;3967;48.702;9.326;2023-02-15T07:20:07;-0.90;99.90
7844;DHT22;3967;48.702;9.326;2023-02-15T07:22:34;-0.70;99.90
7844;DHT22;3967;48.702;9.326;2023-02-15T07:25:07;-0.50;99.90
7844;DHT22;3967;48.702;9.326;2023-02-15T07:27:34;-0.50;99.90
7844;DHT22;3967;48.702;9.326;2023-02-15T07:30:01;-0.60;99.90
7844;DHT22;3967;48.702;9.326;2023-02-15T07:32:29;-0.60;99.90
7844;DHT22;3967;48.702;9.326;2023-02-15T07:34:57;-0.40;99.90
7844;DHT22;3967;48.702;9.326;2023-02-15T07:37:24;-0.40;99.90
7844;DHT22;3967;48.702;9.326;2023-02-15T07:39:51;-0.30;99.90
7844;DHT22;3967;48.702;9.326;2023-02-15T07:42:18;-0.20;99.90
7844;DHT22;3967;48.702;9.326;2023-02-15T07:44:46;-0.30;99.90
7844;DHT22;3967;48.702;9.326;2023-02-15T07:47:13;-0.30;99.90
7844;DHT22;3967;48.702;9.326;2023-02-15T07:49:40;-0.30;99.90
7844;DHT22;3967;48.702;9.326;2023-02-15T07:52:06;-0.20;99.90
7844;DHT22;3967;48.702;9.326;2023-02-15T07:54:33;-0.10;99.90
7844;DHT22;3967;48.702;9.326;2023-02-15T07:57:00;0.00;99.90
7844;DHT22;3967;48.702;9.326;2023-02-15T07:59:28;0.10;99.90
7844;DHT22;3967;48.702;9.326;2023-02-15T08:01:54;0.20;99.90
7844;DHT22;3967;48.702;9.326;2023-02-15T08:04:23;0.30;99.90
7844;DHT22;3967;48.702;9.326;2023-02-15T08:06:53;0.20;99.90
7844;DHT22;3967;48.702;9.326;2023-02-15T08:09:21;0.10;99.90
7844;DHT22;3967;48.702;9.326;2023-02-15T08:11:48;0.10;99.90
7844;DHT22;3967;48.702;9.326;2023-02-15T08:16:50;0.20;99.90
7844;DHT22;3967;48.702;9.326;2023-02-15T08:19:28;0.30;99.90
7844;DHT22;3967;48.702;9.326;2023-02-15T08:22:00;0.20;99.90
7844;DHT22;3967;48.702;9.326;2023-02-15T08:24:31;0.10;99.90
7844;DHT22;3967;48.702;9.326;2023-02-15T08:26:58;0.30;99.90
7844;DHT22;3967;48.702;9.326;2023-02-15T08:29:27;0.50;99.90
7844;DHT22;3967;48.702;9.326;2023-02-15T08:31:56;0.50;99.90
7844;DHT22;3967;48.702;9.326;2023-02-15T08:34:25;0.60;99.90
7844;DHT22;3967;48.702;9.326;2023-02-15T08:36:52;0.80;99.90
7844;DHT22;3967;48.702;9.326;2023-02-15T08:39:19;1.00;99.90
7844;DHT22;3967;48.702;9.326;2023-02-15T08:41:47;1.20;99.90
7844;DHT22;3967;48.702;9.326;2023-02-15T08:44:16;1.40;99.90
7844;DHT22;3967;48.702;9.326;2023-02-15T08:46:44;1.50;99.90
7844;DHT22;3967;48.702;9.326;2023-02-15T08:49:21;1.60;99.90
7844;DHT22;3967;48.702;9.326;2023-02-15T08:51:49;1.70;99.90
7844;DHT22;3967;48.702;9.326;2023-02-15T08:54:19;2.00;99.90
7844;DHT22;3967;48.702;9.326;2023-02-15T08:56:46;2.10;99.90
7844;DHT22;3967;48.702;9.326;2023-02-15T08:59:19;2.30;99.90
7844;DHT22;3967;48.702;9.326;2023-02-15T09:01:47;2.40;99.90
7844;DHT22;3967;48.702;9.326;2023-02-15T09:04:14;2.50;99.90
7844;DHT22;3967;48.702;9.326;2023-02-15T09:06:43;2.70;99.90
7844;DHT22;3967;48.702;9.326;2023-02-15T09:09:14;2.70;99.90
7844;DHT22;3967;48.702;9.326;2023-02-15T09:11:42;2.50;99.90
7844;DHT22;3967;48.702;9.326;2023-02-15T09:14:15;2.60;99.90
7844;DHT22;3967;48.702;9.326;2023-02-15T09:16:44;2.50;99.90
7844;DHT22;3967;48.702;9.326;2023-02-15T09:19:12;2.50;99.90
7844;DHT22;3967;48.702;9.326;2023-02-15T09:21:40;2.60;99.90
7844;DHT22;3967;48.702;9.326;2023-02-15T09:24:09;2.80;99.90
7844;DHT22;3967;48.702;9.326;2023-02-15T09:26:38;2.80;99.90
7844;DHT22;3967;48.702;9.326;2023-02-15T09:29:07;2.80;99.90
7844;DHT22;3967;48.702;9.326;2023-02-15T09:31:44;3.10;99.90
7844;DHT22;3967;48.702;9.326;2023-02-15T09:34:13;3.20;99.90
7844;DHT22;3967;48.702;9.326;2023-02-15T09:36:43;3.30;99.90
7844;DHT22;3967;48.702;9.326;2023-02-15T09:39:20;3.20;99.90
7844;DHT22;3967;48.702;9.326;2023-02-15T09:45:49;3.30;99.80
7844;DHT22;3967;48.702;9.326;2023-02-15T09:56:25;3.80;99.20
7844;DHT22;3967;48.702;9.326;2023-02-15T10:08:25;4.00;98.40
7844;DHT22;3967;48.702;9.326;2023-02-15T10:11:16;4.20;97.80
7844;DHT22;3967;48.702;9.326;2023-02-15T10:17:10;4.40;96.70
7844;DHT22;3967;48.702;9.326;2023-02-15T10:27:50;4.70;96.40
7844;DHT22;3967;48.702;9.326;2023-02-15T10:30:18;4.90;95.80
7844;DHT22;3967;48.702;9.326;2023-02-15T10:33:07;4.90;95.30
7844;DHT22;3967;48.702;9.326;2023-02-15T10:35:56;5.00;94.80
7844;DHT22;3967;48.702;9.326;2023-02-15T10:46:55;5.30;94.10
7844;DHT22;3967;48.702;9.326;2023-02-15T10:52:23;5.30;92.70
7844;DHT22;3967;48.702;9.326;2023-02-15T10:55:13;5.50;92.70
7844;DHT22;3967;48.702;9.326;2023-02-15T11:00:45;5.70;92.30
7844;DHT22;3967;48.702;9.326;2023-02-15T11:06:04;5.90;91.30
7844;DHT22;3967;48.702;9.326;2023-02-15T11:08:35;6.10;91.00
7844;DHT22;3967;48.702;9.326;2023-02-15T11:11:15;6.10;90.90
7844;DHT22;3967;48.702;9.326;2023-02-15T11:13:48;6.20;90.40
7844;DHT22;3967;48.702;9.326;2023-02-15T11:16:20;6.30;89.90
7844;DHT22;3967;48.702;9.326;2023-02-15T11:18:59;6.40;90.10
7844;DHT22;3967;48.702;9.326;2023-02-15T11:21:33;6.40;90.20
7844;DHT22;3967;48.702;9.326;2023-02-15T11:24:14;6.50;90.20
7844;DHT22;3967;48.702;9.326;2023-02-15T11:26:49;6.60;90.10
7844;DHT22;3967;48.702;9.326;2023-02-15T11:29:33;6.70;88.60
7844;DHT22;3967;48.702;9.326;2023-02-15T11:32:15;6.90;87.30
7844;DHT22;3967;48.702;9.326;2023-02-15T11:37:24;7.20;87.90
7844;DHT22;3967;48.702;9.326;2023-02-15T11:39:52;7.20;87.50
7844;DHT22;3967;48.702;9.326;2023-02-15T11:42:23;7.20;87.20
7844;DHT22;3967;48.702;9.326;2023-02-15T11:44:58;7.30;87.20
7844;DHT22;3967;48.702;9.326;2023-02-15T11:47:25;7.50;85.80
7844;DHT22;3967;48.702;9.326;2023-02-15T11:49:52;7.50;85.00
7844;DHT22;3967;48.702;9.326;2023-02-15T11:52:19;7.60;85.10
7844;DHT22;3967;48.702;9.326;2023-02-15T11:54:48;7.70;84.10
7844;DHT22;3967;48.702;9.326;2023-02-15T11:57:32;7.80;83.00
7844;DHT22;3967;48.702;9.326;2023-02-15T12:00:24;7.90;82.40
7844;DHT22;3967;48.702;9.326;2023-02-15T12:02:53;8.00;82.00
7844;DHT22;3967;48.702;9.326;2023-02-15T12:05:24;8.00;82.50
7844;DHT22;3967;48.702;9.326;2023-02-15T12:08:02;8.10;83.10
7844;DHT22;3967;48.702;9.326;2023-02-15T12:10:42;8.10;83.40
7844;DHT22;3967;48.702;9.326;2023-02-15T12:13:14;8.20;83.50
7844;DHT22;3967;48.702;9.326;2023-02-15T12:15:44;8.30;83.20
7844;DHT22;3967;48.702;9.326;2023-02-15T12:21:10;8.40;84.00
7844;DHT22;3967;48.702;9.326;2023-02-15T12:23:50;8.50;83.20
7844;DHT22;3967;48.702;9.326;2023-02-15T12:26:43;8.70;84.50
7844;DHT22;3967;48.702;9.326;2023-02-15T12:29:16;8.60;82.40
7844;DHT22;3967;48.702;9.326;2023-02-15T12:31:45;8.60;82.80
7844;DHT22;3967;48.702;9.326;2023-02-15T12:34:31;8.60;82.00
7844;DHT22;3967;48.702;9.326;2023-02-15T12:37:10;8.80;82.30
7844;DHT22;3967;48.702;9.326;2023-02-15T12:39:57;8.90;82.70
7844;DHT22;3967;48.702;9.326;2023-02-15T12:42:25;8.90;81.80
7844;DHT22;3967;48.702;9.326;2023-02-15T12:45:21;9.00;81.60
7844;DHT22;3967;48.702;9.326;2023-02-15T12:48:17;9.10;80.60
7844;DHT22;3967;48.702;9.326;2023-02-15T12:50:45;9.10;79.70
7844;DHT22;3967;48.702;9.326;2023-02-15T12:53:33;9.20;81.10
7844;DHT22;3967;48.702;9.326;2023-02-15T12:56:02;9.30;81.20
7844;DHT22;3967;48.702;9.326;2023-02-15T12:58:31;9.40;80.50
7844;DHT22;3967;48.702;9.326;2023-02-15T13:03:38;9.50;81.60
7844;DHT22;3967;48.702;9.326;2023-02-15T13:06:06;9.50;81.70
7844;DHT22;3967;48.702;9.326;2023-02-15T13:08:43;9.60;82.10
7844;DHT22;3967;48.702;9.326;2023-02-15T13:11:12;9.70;80.80
7844;DHT22;3967;48.702;9.326;2023-02-15T13:13:54;9.80;79.00
7844;DHT22;3967;48.702;9.326;2023-02-15T13:16:32;9.90;78.10
7844;DHT22;3967;48.702;9.326;2023-02-15T13:19:06;9.90;77.60
7844;DHT22;3967;48.702;9.326;2023-02-15T13:21:37;10.00;77.00
7844;DHT22;3967;48.702;9.326;2023-02-15T13:26:43;10.20;76.20
7844;DHT22;3967;48.702;9.326;2023-02-15T13:29:26;10.30;75.00
7844;DHT22;3967;48.702;9.326;2023-02-15T13:31:55;10.30;77.00
7844;DHT22;3967;48.702;9.326;2023-02-15T13:34:29;10.40;77.20
7844;DHT22;3967;48.702;9.326;2023-02-15T13:40:20;10.40;78.20
7844;DHT22;3967;48.702;9.326;2023-02-15T13:42:59;10.60;79.70
7844;DHT22;3967;48.702;9.326;2023-02-15T13:48:19;10.70;80.20
7844;DHT22;3967;48.702;9.326;2023-02-15T13:54:05;10.80;76.50
7844;DHT22;3967;48.702;9.326;2023-02-15T14:00:01;10.90;77.40
7844;DHT22;3967;48.702;9.326;2023-02-15T14:11:06;11.00;84.10
7844;DHT22;3967;48.702;9.326;2023-02-15T14:16:36;11.00;84.60
7844;DHT22;3967;48.702;9.326;2023-02-15T14:19:26;11.10;84.40
7844;DHT22;3967;48.702;9.326;2023-02-15T14:28:05;11.10;84.60
7844;DHT22;3967;48.702;9.326;2023-02-15T14:30:39;11.10;85.00
7844;DHT22;3967;48.702;9.326;2023-02-15T14:35:35;11.10;83.20
7844;DHT22;3967;48.702;9.326;2023-02-15T14:41:14;11.20;80.40
7844;DHT22;3967;48.702;9.326;2023-02-15T14:49:28;11.30;79.10
7844;DHT22;3967;48.702;9.326;2023-02-15T14:52:02;11.20;78.70
7844;DHT22;3967;48.702;9.326;2023-02-15T15:02:20;11.40;77.30
7844;DHT22;3967;48.702;9.326;2023-02-15T15:07:35;11.40;76.50
7844;DHT22;3967;48.702;9.326;2023-02-15T15:10:05;11.40;75.80
7844;DHT22;3967;48.702;9.326;2023-02-15T15:36:53;11.00;84.40
7844;DHT22;3967;48.702;9.326;2023-02-15T15:45:37;10.70;86.70
7844;DHT22;3967;48.702;9.326;2023-02-15T15:50:57;10.50;86.80
7844;DHT22;3967;48.702;9.326;2023-02-15T15:53:27;10.40;88.00
7844;DHT22;3967;48.702;9.326;2023-02-15T15:55:59;10.40;88.60
7844;DHT22;3967;48.702;9.326;2023-02-15T15:58:28;10.20;88.10
7844;DHT22;3967;48.702;9.326;2023-02-15T16:03:30;10.00;89.50
7844;DHT22;3967;48.702;9.326;2023-02-15T16:05:57;9.80;90.50
7844;DHT22;3967;48.702;9.326;2023-02-15T16:08:28;9.60;90.80
7844;DHT22;3967;48.702;9.326;2023-02-15T16:10:56;9.60;91.30
7844;DHT22;3967;48.702;9.326;2023-02-15T16:13:22;9.50;91.10
7844;DHT22;3967;48.702;9.326;2023-02-15T16:15:51;9.60;91.20
7844;DHT22;3967;48.702;9.326;2023-02-15T16:18:22;9.40;90.80
7844;DHT22;3967;48.702;9.326;2023-02-15T16:20:59;9.40;90.60
7844;DHT22;3967;48.702;9.326;2023-02-15T16:28:53;9.10;90.20
7844;DHT22;3967;48.702;9.326;2023-02-15T16:31:21;9.00;90.40
7844;DHT22;3967;48.702;9.326;2023-02-15T16:33:53;8.80;90.40
7844;DHT22;3967;48.702;9.326;2023-02-15T16:36:26;8.80;90.20
7844;DHT22;3967;48.702;9.326;2023-02-15T16:41:27;8.50;90.30
7844;DHT22;3967;48.702;9.326;2023-02-15T16:44:07;8.60;90.40
7844;DHT22;3967;48.702;9.326;2023-02-15T16:46:43;8.60;90.30
7844;DHT22;3967;48.702;9.326;2023-02-15T16:49:21;8.40;90.40
7844;DHT22;3967;48.702;9.326;2023-02-15T16:52:01;8.30;90.70
7844;DHT22;3967;48.702;9.326;2023-02-15T16:54:29;8.20;90.90
7844;DHT22;3967;48.702;9.326;2023-02-15T16:56:58;8.10;90.90
7844;DHT22;3967;48.702;9.326;2023-02-15T16:59:38;7.90;91.10
7844;DHT22;3967;48.702;9.326;2023-02-15T17:02:15;7.80;91.30
7844;DHT22;3967;48.702;9.326;2023-02-15T17:10:41;7.50;91.60
7844;DHT22;3967;48.702;9.326;2023-02-15T17:13:16;7.60;91.40
7844;DHT22;3967;48.702;9.326;2023-02-15T17:15:44;7.80;91.10
7844;DHT22;3967;48.702;9.326;2023-02-15T17:18:17;7.80;90.80
7844;DHT22;3967;48.702;9.326;2023-02-15T17:20:46;7.80;90.60
7844;DHT22;3967;48.702;9.326;2023-02-15T17:26:01;7.80;90.50
7844;DHT22;3967;48.702;9.326;2023-02-15T17:28:30;7.70;90.40
7844;DHT22;3967;48.702;9.326;2023-02-15T17:30:58;7.60;90.50
7844;DHT22;3967;48.702;9.326;2023-02-15T17:33:36;7.60;90.60
7844;DHT22;3967;48.702;9.326;2023-02-15T17:38:31;7.30;90.90
7844;DHT22;3967;48.702;9.326;2023-02-15T17:40:58;7.20;91.40
7844;DHT22;3967;48.702;9.326;2023-02-15T17:43:25;7.00;91.70
7844;DHT22;3967;48.702;9.326;2023-02-15T17:45:52;7.10;92.20
7844;DHT22;3967;48.702;9.326;2023-02-15T17:50:49;7.20;92.60
7844;DHT22;3967;48.702;9.326;2023-02-15T17:53:17;7.30;92.60
7844;DHT22;3967;48.702;9.326;2023-02-15T17:55:45;7.30;92.70
7844;DHT22;3967;48.702;9.326;2023-02-15T17:58:14;7.40;92.60
7844;DHT22;3967;48.702;9.326;2023-02-15T18:00:55;7.40;92.30
7844;DHT22;3967;48.702;9.326;2023-02-15T18:03:52;7.40;92.30
7844;DHT22;3967;48.702;9.326;2023-02-15T18:06:40;7.40;92.20
7844;DHT22;3967;48.702;9.326;2023-02-15T18:09:26;7.40;92.20
7844;DHT22;3967;48.702;9.326;2023-02-15T18:12:27;7.40;92.20
7844;DHT22;3967;48.702;9.326;2023-02-15T18:14:55;7.40;92.10
7844;DHT22;3967;48.702;9.326;2023-02-15T18:17:27;7.30;92.10
7844;DHT22;3967;48.702;9.326;2023-02-15T18:19:54;7.30;92.10
7844;DHT22;3967;48.702;9.326;2023-02-15T18:22:21;7.30;92.20
7844;DHT22;3967;48.702;9.326;2023-02-15T18:24:48;7.30;92.10
7844;DHT22;3967;48.702;9.326;2023-02-15T18:27:15;7.30;91.90
7844;DHT22;3967;48.702;9.326;2023-02-15T18:29:42;7.10;91.90
7844;DHT22;3967;48.702;9.326;2023-02-15T18:32:18;7.00;92.00
7844;DHT22;3967;48.702;9.326;2023-02-15T18:34:48;7.00;92.10
7844;DHT22;3967;48.702;9.326;2023-02-15T18:37:18;7.00;92.10
7844;DHT22;3967;48.702;9.326;2023-02-15T18:39:50;6.90;92.10
7844;DHT22;3967;48.702;9.326;2023-02-15T18:44:53;7.00;92.10
7844;DHT22;3967;48.702;9.326;2023-02-15T18:47:20;7.00;92.10
7844;DHT22;3967;48.702;9.326;2023-02-15T18:49:47;6.90;92.20
7844;DHT22;3967;48.702;9.326;2023-02-15T18:52:20;6.80;92.20
7844;DHT22;3967;48.702;9.326;2023-02-15T18:54:55;6.80;92.20
7844;DHT22;3967;48.702;9.326;2023-02-15T18:57:23;6.80;92.40
7844;DHT22;3967;48.702;9.326;2023-02-15T18:59:50;6.60;92.50
7844;DHT22;3967;48.702;9.326;2023-02-15T19:02:18;6.60;92.60
7844;DHT22;3967;48.702;9.326;2023-02-15T19:04:45;6.60;92.70
7844;DHT22;3967;48.702;9.326;2023-02-15T19:07:24;6.50;92.80
7844;DHT22;3967;48.702;9.326;2023-02-15T19:09:57;6.50;92.90
7844;DHT22;3967;48.702;9.326;2023-02-15T19:12:26;6.50;92.90
7844;DHT22;3967;48.702;9.326;2023-02-15T19:14:53;6.50;92.90
7844;DHT22;3967;48.702;9.326;2023-02-15T19:17:22;6.50;92.90
7844;DHT22;3967;48.702;9.326;2023-02-15T19:19:50;6.50;92.90
7844;DHT22;3967;48.702;9.326;2023-02-15T19:22:29;6.40;92.90
7844;DHT22;3967;48.702;9.326;2023-02-15T19:25:00;6.30;92.90
7844;DHT22;3967;48.702;9.326;2023-02-15T19:27:30;6.30;93.00
7844;DHT22;3967;48.702;9.326;2023-02-15T19:30:00;6.30;93.10
7844;DHT22;3967;48.702;9.326;2023-02-15T19:32:27;6.20;93.10
7844;DHT22;3967;48.702;9.326;2023-02-15T19:34:56;6.20;93.30
7844;DHT22;3967;48.702;9.326;2023-02-15T19:37:34;6.20;93.40
7844;DHT22;3967;48.702;9.326;2023-02-15T19:40:04;6.20;93.20
7844;DHT22;3967;48.702;9.326;2023-02-15T19:42:34;6.00;93.10
7844;DHT22;3967;48.702;9.326;2023-02-15T19:45:01;6.00;93.30
7844;DHT22;3967;48.702;9.326;2023-02-15T19:47:27;5.90;93.40
7844;DHT22;3967;48.702;9.326;2023-02-15T19:49:54;5.90;93.40
7844;DHT22;3967;48.702;9.326;2023-02-15T19:52:26;5.90;93.60
7844;DHT22;3967;48.702;9.326;2023-02-15T19:54:54;5.90;93.50
7844;DHT22;3967;48.702;9.326;2023-02-15T19:57:23;5.80;93.60
7844;DHT22;3967;48.702;9.326;2023-02-15T19:59:50;5.70;93.80
7844;DHT22;3967;48.702;9.326;2023-02-15T20:02:17;5.70;94.10
7844;DHT22;3967;48.702;9.326;2023-02-15T20:04:45;5.70;94.40